sensor_id;sensor_type;location;lat;lon;timestamp;pressure;altitude;pressure_sealevel;temperature;humidity
33422;BME280;19763;55.798;37.782;2022-10-16T00:01:26;100766.56;;;6.72;69.59
33422;BME280;19763;55.798;37.782;2022-10-16T00:03:52;100783.88;;;6.84;70.01
33422;BME280;19763;55.798;37.782;2022-10-16T00:06:20;100766.56;;;6.70;69.61
33422;BME280;19763;55.798;37.782;2022-10-16T00:08:47;100788.97;;;6.81;69.63
33422;BME280;19763;55.798;37.782;2022-10-16T00:11:19;100793.25;;;6.77;69.37
33422;BME280;19763;55.798;37.782;2022-10-16T00:13:46;100800.97;;;6.76;69.76
33422;BME280;19763;55.798;37.782;2022-10-16T00:16:13;100792.38;;;6.78;69.47
33422;BME280;19763;55.798;37.782;2022-10-16T00:18:40;100800.19;;;6.83;68.86
33422;BME280;19763;55.798;37.782;2022-10-16T00:21:08;100797.59;;;6.83;68.92
33422;BME280;19763;55.798;37.782;2022-10-16T00:23:58;100789.75;;;6.72;69.24
33422;BME280;19763;55.798;37.782;2022-10-16T00:26:24;100802.66;;;6.77;69.71
33422;BME280;19763;55.798;37.782;2022-10-16T00:28:51;100798.31;;;6.72;70.12
33422;BME280;19763;55.798;37.782;2022-10-16T00:31:19;100790.53;;;6.66;69.88
33422;BME280;19763;55.798;37.782;2022-10-16T00:33:45;100802.56;;;6.69;70.33
33422;BME280;19763;55.798;37.782;2022-10-16T00:36:13;100801.56;;;6.57;70.64
33422;BME280;19763;55.798;37.782;2022-10-16T00:38:39;100806.75;;;6.61;70.72
33422;BME280;19763;55.798;37.782;2022-10-16T00:41:11;100796.28;;;6.48;70.25
33422;BME280;19763;55.798;37.782;2022-10-16T00:43:57;100795.44;;;6.48;71.10
33422;BME280;19763;55.798;37.782;2022-10-16T00:48:56;100809.13;;;6.45;71.79
33422;BME280;19763;55.798;37.782;2022-10-16T00:51:31;100783.13;;;6.25;71.92
33422;BME280;19763;55.798;37.782;2022-10-16T00:53:58;100797.94;;;6.42;71.17
33422;BME280;19763;55.798;37.782;2022-10-16T00:56:24;100807.34;;;6.41;71.30
33422;BME280;19763;55.798;37.782;2022-10-16T00:58:50;100805.56;;;6.35;71.21
33422;BME280;19763;55.798;37.782;2022-10-16T01:01:15;100805.66;;;6.42;70.75
33422;BME280;19763;55.798;37.782;2022-10-16T01:03:41;100809.13;;;6.45;70.71
33422;BME280;19763;55.798;37.782;2022-10-16T01:06:23;100790.97;;;6.34;70.82
33422;BME280;19763;55.798;37.782;2022-10-16T01:12:04;100819.41;;;6.44;70.78
33422;BME280;19763;55.798;37.782;2022-10-16T01:17:13;100817.72;;;6.46;70.12
33422;BME280;19763;55.798;37.782;2022-10-16T01:19:55;100820.28;;;6.44;70.53
33422;BME280;19763;55.798;37.782;2022-10-16T01:22:23;100823.66;;;6.40;71.32
33422;BME280;19763;55.798;37.782;2022-10-16T01:24:53;100812.31;;;6.27;71.38
33422;BME280;19763;55.798;37.782;2022-10-16T01:27:32;100830.50;;;6.41;70.99
33422;BME280;19763;55.798;37.782;2022-10-16T01:32:33;100831.28;;;6.35;71.29
33422;BME280;19763;55.798;37.782;2022-10-16T01:35:21;100827.03;;;6.36;71.12
33422;BME280;19763;55.798;37.782;2022-10-16T01:40:39;100809.72;;;6.26;70.63
33422;BME280;19763;55.798;37.782;2022-10-16T01:43:16;100814.81;;;6.22;71.14
33422;BME280;19763;55.798;37.782;2022-10-16T01:45:44;100832.03;;;6.28;71.18
33422;BME280;19763;55.798;37.782;2022-10-16T01:48:17;100837.97;;;6.24;71.09
33422;BME280;19763;55.798;37.782;2022-10-16T01:50:47;100836.31;;;6.26;71.00
33422;BME280;19763;55.798;37.782;2022-10-16T01:53:15;100840.59;;;6.26;71.12
33422;BME280;19763;55.798;37.782;2022-10-16T01:55:45;100834.47;;;6.19;71.50
33422;BME280;19763;55.798;37.782;2022-10-16T01:58:13;100830.13;;;6.13;71.21
33422;BME280;19763;55.798;37.782;2022-10-16T02:00:42;100818.84;;;6.07;71.70
33422;BME280;19763;55.798;37.782;2022-10-16T02:03:10;100815.41;;;6.04;71.46
33422;BME280;19763;55.798;37.782;2022-10-16T02:05:41;100820.59;;;6.08;72.04
33422;BME280;19763;55.798;37.782;2022-10-16T02:08:08;100838.66;;;6.12;71.59
33422;BME280;19763;55.798;37.782;2022-10-16T02:10:35;100837.84;;;6.15;71.71
33422;BME280;19763;55.798;37.782;2022-10-16T02:15:51;100836.88;;;6.08;71.73
33422;BME280;19763;55.798;37.782;2022-10-16T02:18:16;100838.63;;;6.11;71.74
33422;BME280;19763;55.798;37.782;2022-10-16T02:20:55;100826.47;;;6.00;71.96
33422;BME280;19763;55.798;37.782;2022-10-16T02:26:02;100829.06;;;6.00;72.05
33422;BME280;19763;55.798;37.782;2022-10-16T02:28:37;100822.09;;;5.96;71.73
33422;BME280;19763;55.798;37.782;2022-10-16T02:31:08;100810.78;;;5.85;72.02
33422;BME280;19763;55.798;37.782;2022-10-16T02:33:37;100836.66;;;5.96;71.85
33422;BME280;19763;55.798;37.782;2022-10-16T02:36:03;100841.81;;;5.96;72.49
33422;BME280;19763;55.798;37.782;2022-10-16T02:38:30;100840.88;;;5.92;72.16
33422;BME280;19763;55.798;37.782;2022-10-16T02:40:56;100838.34;;;5.95;72.34
33422;BME280;19763;55.798;37.782;2022-10-16T02:43:22;100850.22;;;5.87;72.81
33422;BME280;19763;55.798;37.782;2022-10-16T02:45:47;100838.19;;;5.84;72.87
33422;BME280;19763;55.798;37.782;2022-10-16T02:48:13;100845.97;;;5.87;72.76
33422;BME280;19763;55.798;37.782;2022-10-16T02:50:38;100855.28;;;5.82;72.79
33422;BME280;19763;55.798;37.782;2022-10-16T02:53:04;100850.16;;;5.84;73.29
33422;BME280;19763;55.798;37.782;2022-10-16T02:55:29;100851.06;;;5.84;72.87
33422;BME280;19763;55.798;37.782;2022-10-16T02:57:55;100844.84;;;5.72;73.16
33422;BME280;19763;55.798;37.782;2022-10-16T03:00:21;100856.03;;;5.77;72.80
33422;BME280;19763;55.798;37.782;2022-10-16T03:02:47;100862.94;;;5.78;73.03
33422;BME280;19763;55.798;37.782;2022-10-16T03:05:13;100859.44;;;5.76;72.63
33422;BME280;19763;55.798;37.782;2022-10-16T03:07:39;100856.00;;;5.74;73.02
33422;BME280;19763;55.798;37.782;2022-10-16T03:10:05;100858.63;;;5.78;72.86
33422;BME280;19763;55.798;37.782;2022-10-16T03:12:31;100860.34;;;5.76;72.96
33422;BME280;19763;55.798;37.782;2022-10-16T03:14:56;100859.44;;;5.76;72.94
33422;BME280;19763;55.798;37.782;2022-10-16T03:17:23;100864.50;;;5.69;72.96
33422;BME280;19763;55.798;37.782;2022-10-16T03:19:49;100857.63;;;5.70;72.91
33422;BME280;19763;55.798;37.782;2022-10-16T03:22:14;100855.69;;;5.57;73.35
33422;BME280;19763;55.798;37.782;2022-10-16T03:24:40;100861.03;;;5.66;73.31
33422;BME280;19763;55.798;37.782;2022-10-16T03:27:06;100850.53;;;5.55;73.26
33422;BME280;19763;55.798;37.782;2022-10-16T03:29:32;100868.63;;;5.61;73.88
33422;BME280;19763;55.798;37.782;2022-10-16T03:31:58;100871.13;;;5.58;73.70
33422;BME280;19763;55.798;37.782;2022-10-16T03:34:24;100873.59;;;5.52;73.98
33422;BME280;19763;55.798;37.782;2022-10-16T03:36:51;100874.47;;;5.52;73.87
33422;BME280;19763;55.798;37.782;2022-10-16T03:39:17;100876.13;;;5.49;73.75
33422;BME280;19763;55.798;37.782;2022-10-16T03:41:42;100877.81;;;5.48;73.93
33422;BME280;19763;55.798;37.782;2022-10-16T03:44:08;100881.25;;;5.49;74.17
33422;BME280;19763;55.798;37.782;2022-10-16T03:46:33;100879.47;;;5.45;74.19
33422;BME280;19763;55.798;37.782;2022-10-16T03:48:59;100887.13;;;5.42;73.71
33422;BME280;19763;55.798;37.782;2022-10-16T03:51:25;100888.00;;;5.44;74.01
33422;BME280;19763;55.798;37.782;2022-10-16T03:53:50;100887.97;;;5.42;73.45
33422;BME280;19763;55.798;37.782;2022-10-16T03:56:16;100879.53;;;5.48;73.78
33422;BME280;19763;55.798;37.782;2022-10-16T03:58:42;100878.66;;;5.47;73.81
33422;BME280;19763;55.798;37.782;2022-10-16T04:01:08;100890.53;;;5.42;74.42
33422;BME280;19763;55.798;37.782;2022-10-16T04:03:34;100892.97;;;5.34;74.78
33422;BME280;19763;55.798;37.782;2022-10-16T04:05:59;100885.38;;;5.41;74.53
33422;BME280;19763;55.798;37.782;2022-10-16T04:08:25;100890.34;;;5.33;73.83
33422;BME280;19763;55.798;37.782;2022-10-16T04:10:50;100886.22;;;5.40;74.04
33422;BME280;19763;55.798;37.782;2022-10-16T04:13:16;100891.28;;;5.36;73.79
33422;BME280;19763;55.798;37.782;2022-10-16T04:15:42;100892.09;;;5.34;73.83
33422;BME280;19763;55.798;37.782;2022-10-16T04:18:09;100893.13;;;5.42;73.74
33422;BME280;19763;55.798;37.782;2022-10-16T04:20:35;100888.78;;;5.40;73.78
33422;BME280;19763;55.798;37.782;2022-10-16T04:23:00;100881.22;;;5.46;73.01
33422;BME280;19763;55.798;37.782;2022-10-16T04:25:26;100891.44;;;5.44;72.93
33422;BME280;19763;55.798;37.782;2022-10-16T04:27:55;100877.91;;;5.53;72.82
33422;BME280;19763;55.798;37.782;2022-10-16T04:30:21;100872.81;;;5.55;72.84
33422;BME280;19763;55.798;37.782;2022-10-16T04:32:52;100876.22;;;5.55;73.47
33422;BME280;19763;55.798;37.782;2022-10-16T04:35:19;100883.06;;;5.53;73.72
33422;BME280;19763;55.798;37.782;2022-10-16T04:37:45;100894.09;;;5.47;74.12
33422;BME280;19763;55.798;37.782;2022-10-16T04:40:11;100892.38;;;5.48;74.03
33422;BME280;19763;55.798;37.782;2022-10-16T04:42:37;100893.94;;;5.41;74.17
33422;BME280;19763;55.798;37.782;2022-10-16T04:45:04;100894.84;;;5.43;74.19
33422;BME280;19763;55.798;37.782;2022-10-16T04:47:30;100897.50;;;5.48;74.25
33422;BME280;19763;55.798;37.782;2022-10-16T04:49:56;100894.16;;;5.52;74.10
33422;BME280;19763;55.798;37.782;2022-10-16T04:52:22;100897.72;;;5.59;73.59
33422;BME280;19763;55.798;37.782;2022-10-16T04:54:50;100891.66;;;5.57;74.29
33422;BME280;19763;55.798;37.782;2022-10-16T04:57:16;100908.81;;;5.58;73.80
33422;BME280;19763;55.798;37.782;2022-10-16T04:59:42;100908.84;;;5.59;74.19
33422;BME280;19763;55.798;37.782;2022-10-16T05:02:07;100906.97;;;5.50;73.03
33422;BME280;19763;55.798;37.782;2022-10-16T05:04:33;100903.72;;;5.59;72.87
33422;BME280;19763;55.798;37.782;2022-10-16T05:06:59;100900.34;;;5.62;72.93
33422;BME280;19763;55.798;37.782;2022-10-16T05:09:24;100896.91;;;5.63;72.33
33422;BME280;19763;55.798;37.782;2022-10-16T05:11:50;100890.28;;;5.76;72.41
33422;BME280;19763;55.798;37.782;2022-10-16T05:14:15;100901.47;;;5.78;72.04
33422;BME280;19763;55.798;37.782;2022-10-16T05:16:41;100901.44;;;5.75;72.31
33422;BME280;19763;55.798;37.782;2022-10-16T05:19:07;100897.16;;;5.75;72.16
33422;BME280;19763;55.798;37.782;2022-10-16T05:21:32;100908.44;;;5.83;71.87
33422;BME280;19763;55.798;37.782;2022-10-16T05:23:58;100909.34;;;5.87;72.18
33422;BME280;19763;55.798;37.782;2022-10-16T05:26:23;100909.50;;;5.95;71.79
33422;BME280;19763;55.798;37.782;2022-10-16T05:28:49;100915.50;;;5.95;71.62
33422;BME280;19763;55.798;37.782;2022-10-16T05:31:15;100906.16;;;5.99;71.25
33422;BME280;19763;55.798;37.782;2022-10-16T05:33:41;100913.13;;;6.04;70.97
33422;BME280;19763;55.798;37.782;2022-10-16T05:36:08;100919.25;;;6.13;70.91
33422;BME280;19763;55.798;37.782;2022-10-16T05:38:35;100920.19;;;6.16;71.06
33422;BME280;19763;55.798;37.782;2022-10-16T05:41:02;100901.94;;;6.02;71.12
33422;BME280;19763;55.798;37.782;2022-10-16T05:43:28;100919.97;;;6.05;70.58
33422;BME280;19763;55.798;37.782;2022-10-16T05:45:55;100926.19;;;6.18;70.39
33422;BME280;19763;55.798;37.782;2022-10-16T05:48:21;100921.97;;;6.22;70.65
33422;BME280;19763;55.798;37.782;2022-10-16T05:50:47;100927.34;;;6.34;70.10
33422;BME280;19763;55.798;37.782;2022-10-16T05:53:13;100925.69;;;6.39;70.75
33422;BME280;19763;55.798;37.782;2022-10-16T05:55:38;100923.28;;;6.50;70.79
33422;BME280;19763;55.798;37.782;2022-10-16T05:58:04;100922.38;;;6.47;70.64
33422;BME280;19763;55.798;37.782;2022-10-16T06:00:29;100923.91;;;6.35;69.97
33422;BME280;19763;55.798;37.782;2022-10-16T06:02:55;100929.22;;;6.46;69.75
33422;BME280;19763;55.798;37.782;2022-10-16T06:05:21;100928.47;;;6.53;69.78
33422;BME280;19763;55.798;37.782;2022-10-16T06:07:46;100917.13;;;6.41;69.89
33422;BME280;19763;55.798;37.782;2022-10-16T06:10:12;100930.31;;;6.62;70.03
33422;BME280;19763;55.798;37.782;2022-10-16T06:12:37;100932.09;;;6.66;69.44
33422;BME280;19763;55.798;37.782;2022-10-16T06:15:03;100916.75;;;6.74;69.15
33422;BME280;19763;55.798;37.782;2022-10-16T06:17:29;100930.69;;;6.87;69.43
33422;BME280;19763;55.798;37.782;2022-10-16T06:19:55;100935.91;;;6.91;68.37
33422;BME280;19763;55.798;37.782;2022-10-16T06:22:20;100937.56;;;6.89;67.98
33422;BME280;19763;55.798;37.782;2022-10-16T06:24:46;100935.97;;;6.96;68.48
33422;BME280;19763;55.798;37.782;2022-10-16T06:27:12;100931.81;;;7.07;68.15
33422;BME280;19763;55.798;37.782;2022-10-16T06:29:38;100939.00;;;7.32;68.38
33422;BME280;19763;55.798;37.782;2022-10-16T06:32:04;100929.78;;;7.54;67.45
33422;BME280;19763;55.798;37.782;2022-10-16T06:34:29;100937.03;;;7.86;65.53
33422;BME280;19763;55.798;37.782;2022-10-16T06:36:55;100934.56;;;7.98;65.34
33422;BME280;19763;55.798;37.782;2022-10-16T06:39:20;100935.75;;;8.37;64.74
33422;BME280;19763;55.798;37.782;2022-10-16T06:41:46;100935.91;;;8.53;65.43
33422;BME280;19763;55.798;37.782;2022-10-16T06:44:11;100945.41;;;8.60;63.32
33422;BME280;19763;55.798;37.782;2022-10-16T06:46:37;100942.88;;;8.66;64.22
33422;BME280;19763;55.798;37.782;2022-10-16T06:49:03;100939.41;;;8.62;64.27
33422;BME280;19763;55.798;37.782;2022-10-16T06:51:28;100929.06;;;8.59;63.77
33422;BME280;19763;55.798;37.782;2022-10-16T06:53:55;100944.66;;;8.76;63.43
33422;BME280;19763;55.798;37.782;2022-10-16T06:56:26;100924.81;;;8.69;62.18
33422;BME280;19763;55.798;37.782;2022-10-16T06:58:53;100944.75;;;8.92;63.36
33422;BME280;19763;55.798;37.782;2022-10-16T07:01:21;100928.31;;;8.82;62.94
33422;BME280;19763;55.798;37.782;2022-10-16T07:03:48;100943.97;;;9.04;60.96
33422;BME280;19763;55.798;37.782;2022-10-16T07:06:21;100951.91;;;9.39;61.02
33422;BME280;19763;55.798;37.782;2022-10-16T07:08:47;100951.13;;;9.70;60.48
33422;BME280;19763;55.798;37.782;2022-10-16T07:11:16;100927.03;;;9.92;58.94
33422;BME280;19763;55.798;37.782;2022-10-16T07:13:43;100948.63;;;10.28;58.50
33422;BME280;19763;55.798;37.782;2022-10-16T07:16:12;100946.06;;;10.34;58.07
33422;BME280;19763;55.798;37.782;2022-10-16T07:18:38;100945.19;;;10.35;58.76
33422;BME280;19763;55.798;37.782;2022-10-16T07:21:15;100955.50;;;10.20;58.65
33422;BME280;19763;55.798;37.782;2022-10-16T07:23:42;100956.38;;;10.31;58.49
33422;BME280;19763;55.798;37.782;2022-10-16T07:26:08;100958.09;;;10.23;58.26
33422;BME280;19763;55.798;37.782;2022-10-16T07:28:34;100962.44;;;10.19;57.36
33422;BME280;19763;55.798;37.782;2022-10-16T07:31:01;100959.81;;;10.29;58.19
33422;BME280;19763;55.798;37.782;2022-10-16T07:33:27;100958.13;;;10.25;57.16
33422;BME280;19763;55.798;37.782;2022-10-16T07:35:54;100961.59;;;10.36;57.25
33422;BME280;19763;55.798;37.782;2022-10-16T07:38:21;100952.06;;;10.19;57.01
33422;BME280;19763;55.798;37.782;2022-10-16T07:40:47;100956.38;;;10.27;56.90
33422;BME280;19763;55.798;37.782;2022-10-16T07:43:13;100942.63;;;10.43;56.93
33422;BME280;19763;55.798;37.782;2022-10-16T07:45:47;100951.25;;;10.55;57.50
33422;BME280;19763;55.798;37.782;2022-10-16T07:48:14;100946.91;;;10.32;56.54
33422;BME280;19763;55.798;37.782;2022-10-16T07:50:40;100952.09;;;10.44;57.90
33422;BME280;19763;55.798;37.782;2022-10-16T07:53:06;100952.97;;;10.40;56.35
33422;BME280;19763;55.798;37.782;2022-10-16T07:55:32;100947.78;;;10.57;56.40
33422;BME280;19763;55.798;37.782;2022-10-16T07:57:58;100941.75;;;10.67;55.92
33422;BME280;19763;55.798;37.782;2022-10-16T08:00:23;100946.91;;;10.61;55.39
33422;BME280;19763;55.798;37.782;2022-10-16T08:02:49;100950.34;;;10.85;55.40
33422;BME280;19763;55.798;37.782;2022-10-16T08:05:15;100913.28;;;10.38;55.07
33422;BME280;19763;55.798;37.782;2022-10-16T08:07:40;100954.66;;;10.66;55.09
33422;BME280;19763;55.798;37.782;2022-10-16T08:10:06;100959.00;;;10.73;55.15
33422;BME280;19763;55.798;37.782;2022-10-16T08:12:32;100949.41;;;11.01;55.33
33422;BME280;19763;55.798;37.782;2022-10-16T08:14:57;100956.19;;;11.49;54.04
33422;BME280;19763;55.798;37.782;2022-10-16T08:17:23;100953.47;;;11.70;53.34
33422;BME280;19763;55.798;37.782;2022-10-16T08:19:48;100949.13;;;11.72;53.37
33422;BME280;19763;55.798;37.782;2022-10-16T08:22:14;100958.59;;;11.86;52.47
33422;BME280;19763;55.798;37.782;2022-10-16T08:24:40;100962.09;;;11.74;51.73
33422;BME280;19763;55.798;37.782;2022-10-16T08:27:06;100958.50;;;12.04;52.81
33422;BME280;19763;55.798;37.782;2022-10-16T08:29:32;100949.75;;;12.16;52.02
33422;BME280;19763;55.798;37.782;2022-10-16T08:31:58;100957.47;;;12.27;50.71
33422;BME280;19763;55.798;37.782;2022-10-16T08:34:24;100947.66;;;12.60;50.92
33422;BME280;19763;55.798;37.782;2022-10-16T08:36:49;100953.03;;;13.27;48.92
33422;BME280;19763;55.798;37.782;2022-10-16T08:39:15;100951.81;;;13.56;47.02
33422;BME280;19763;55.798;37.782;2022-10-16T08:47:26;100944.22;;;14.54;45.05
33422;BME280;19763;55.798;37.782;2022-10-16T08:49:58;100936.66;;;14.90;43.57
33422;BME280;19763;55.798;37.782;2022-10-16T08:52:32;100932.16;;;15.42;44.62
33422;BME280;19763;55.798;37.782;2022-10-16T08:55:01;100945.88;;;15.52;43.38
33422;BME280;19763;55.798;37.782;2022-10-16T08:57:27;100947.00;;;14.96;43.16
33422;BME280;19763;55.798;37.782;2022-10-16T08:59:53;100953.41;;;15.24;42.98
33422;BME280;19763;55.798;37.782;2022-10-16T09:02:53;100927.06;;;15.75;41.68
33422;BME280;19763;55.798;37.782;2022-10-16T09:06:05;100947.00;;;15.39;41.98
33422;BME280;19763;55.798;37.782;2022-10-16T09:08:43;100947.88;;;15.38;42.55
33422;BME280;19763;55.798;37.782;2022-10-16T09:16:41;100934.78;;;14.97;43.03
33422;BME280;19763;55.798;37.782;2022-10-16T09:19:37;100944.59;;;14.84;43.41
33422;BME280;19763;55.798;37.782;2022-10-16T09:22:13;100944.00;;;14.70;43.70
33422;BME280;19763;55.798;37.782;2022-10-16T09:24:40;100939.16;;;13.92;44.88
33422;BME280;19763;55.798;37.782;2022-10-16T09:27:10;100923.44;;;13.96;45.80
33422;BME280;19763;55.798;37.782;2022-10-16T09:29:36;100944.53;;;13.81;45.41
33422;BME280;19763;55.798;37.782;2022-10-16T09:32:17;100916.09;;;13.67;45.90
33422;BME280;19763;55.798;37.782;2022-10-16T09:34:49;100925.69;;;13.62;46.45
33422;BME280;19763;55.798;37.782;2022-10-16T09:37:18;100933.78;;;13.40;46.46
33422;BME280;19763;55.798;37.782;2022-10-16T09:39:47;100945.22;;;13.25;46.72
33422;BME280;19763;55.798;37.782;2022-10-16T09:42:16;100918.53;;;13.08;46.79
33422;BME280;19763;55.798;37.782;2022-10-16T09:44:42;100930.44;;;13.27;46.61
33422;BME280;19763;55.798;37.782;2022-10-16T09:47:15;100919.44;;;13.07;46.09
33422;BME280;19763;55.798;37.782;2022-10-16T09:50:22;100934.91;;;13.16;47.32
33422;BME280;19763;55.798;37.782;2022-10-16T09:52:48;100928.81;;;13.19;46.63
33422;BME280;19763;55.798;37.782;2022-10-16T09:55:16;100934.91;;;13.18;46.77
33422;BME280;19763;55.798;37.782;2022-10-16T09:57:53;100926.53;;;12.94;46.37
33422;BME280;19763;55.798;37.782;2022-10-16T10:00:20;100924.59;;;13.10;47.86
33422;BME280;19763;55.798;37.782;2022-10-16T10:02:46;100924.53;;;13.16;46.20
33422;BME280;19763;55.798;37.782;2022-10-16T10:05:27;100934.09;;;13.14;46.40
33422;BME280;19763;55.798;37.782;2022-10-16T10:07:56;100930.50;;;13.24;47.52
33422;BME280;19763;55.798;37.782;2022-10-16T10:10:25;100901.28;;;13.01;46.82
33422;BME280;19763;55.798;37.782;2022-10-16T10:12:51;100921.09;;;13.11;46.23
33422;BME280;19763;55.798;37.782;2022-10-16T10:15:17;100916.63;;;13.22;46.96
33422;BME280;19763;55.798;37.782;2022-10-16T10:17:54;100926.19;;;13.22;47.92
33422;BME280;19763;55.798;37.782;2022-10-16T10:20:35;100908.19;;;13.03;45.38
33422;BME280;19763;55.798;37.782;2022-10-16T10:23:39;100912.38;;;13.15;45.48
33422;BME280;19763;55.798;37.782;2022-10-16T10:31:45;100896.25;;;12.88;45.42
33422;BME280;19763;55.798;37.782;2022-10-16T10:34:49;100908.47;;;12.80;46.24
33422;BME280;19763;55.798;37.782;2022-10-16T10:40:15;100899.72;;;12.87;45.47
33422;BME280;19763;55.798;37.782;2022-10-16T10:45:27;100911.13;;;12.72;45.68
33422;BME280;19763;55.798;37.782;2022-10-16T10:48:22;100888.63;;;12.71;45.65
33422;BME280;19763;55.798;37.782;2022-10-16T10:50:56;100904.13;;;12.81;45.39
33422;BME280;19763;55.798;37.782;2022-10-16T10:53:44;100914.38;;;12.94;46.69
33422;BME280;19763;55.798;37.782;2022-10-16T10:56:44;100903.03;;;13.02;47.07
33422;BME280;19763;55.798;37.782;2022-10-16T10:59:21;100904.56;;;13.17;46.70
33422;BME280;19763;55.798;37.782;2022-10-16T11:01:58;100885.78;;;12.94;46.18
33422;BME280;19763;55.798;37.782;2022-10-16T11:07:23;100878.78;;;12.97;47.03
33422;BME280;19763;55.798;37.782;2022-10-16T11:09:56;100872.66;;;13.02;45.76
33422;BME280;19763;55.798;37.782;2022-10-16T11:12:36;100873.56;;;13.00;46.16
33422;BME280;19763;55.798;37.782;2022-10-16T11:15:24;100875.28;;;13.01;45.95
33422;BME280;19763;55.798;37.782;2022-10-16T11:20:45;100870.34;;;12.79;45.33
33422;BME280;19763;55.798;37.782;2022-10-16T11:23:28;100871.94;;;12.91;47.13
33422;BME280;19763;55.798;37.782;2022-10-16T11:25:59;100884.88;;;12.97;46.31
33422;BME280;19763;55.798;37.782;2022-10-16T11:28:33;100889.84;;;13.16;46.70
33422;BME280;19763;55.798;37.782;2022-10-16T11:31:10;100881.16;;;13.15;46.88
33422;BME280;19763;55.798;37.782;2022-10-16T11:33:49;100877.09;;;12.95;46.01
33422;BME280;19763;55.798;37.782;2022-10-16T11:38:57;100883.16;;;12.96;46.58
33422;BME280;19763;55.798;37.782;2022-10-16T11:46:52;100869.28;;;12.95;46.82
33422;BME280;19763;55.798;37.782;2022-10-16T11:49:25;100873.69;;;12.90;46.56
33422;BME280;19763;55.798;37.782;2022-10-16T11:52:03;100877.97;;;12.94;46.62
33422;BME280;19763;55.798;37.782;2022-10-16T11:54:42;100854.56;;;12.94;46.38
33422;BME280;19763;55.798;37.782;2022-10-16T11:57:17;100871.75;;;13.05;46.43
33422;BME280;19763;55.798;37.782;2022-10-16T11:59:56;100858.13;;;12.86;47.01
33422;BME280;19763;55.798;37.782;2022-10-16T12:05:11;100868.59;;;12.83;47.52
33422;BME280;19763;55.798;37.782;2022-10-16T12:07:48;100878.13;;;12.79;47.66
33422;BME280;19763;55.798;37.782;2022-10-16T12:10:24;100868.72;;;12.70;46.45
33422;BME280;19763;55.798;37.782;2022-10-16T12:12:50;100873.03;;;12.68;47.44
33422;BME280;19763;55.798;37.782;2022-10-16T12:15:23;100873.03;;;12.68;47.45
33422;BME280;19763;55.798;37.782;2022-10-16T12:17:50;100881.66;;;12.73;46.55
33422;BME280;19763;55.798;37.782;2022-10-16T12:20:30;100880.75;;;12.79;46.95
33422;BME280;19763;55.798;37.782;2022-10-16T12:23:02;100869.56;;;12.71;47.29
33422;BME280;19763;55.798;37.782;2022-10-16T12:25:29;100875.66;;;12.70;47.73
33422;BME280;19763;55.798;37.782;2022-10-16T12:28:01;100872.00;;;12.86;48.00
33422;BME280;19763;55.798;37.782;2022-10-16T12:30:30;100872.09;;;12.77;47.37
33422;BME280;19763;55.798;37.782;2022-10-16T12:33:15;100846.13;;;12.75;47.82
33422;BME280;19763;55.798;37.782;2022-10-16T12:35:45;100849.47;;;12.85;47.13
33422;BME280;19763;55.798;37.782;2022-10-16T12:38:18;100842.59;;;12.83;47.59
33422;BME280;19763;55.798;37.782;2022-10-16T12:40:47;100836.44;;;12.87;47.65
33422;BME280;19763;55.798;37.782;2022-10-16T12:45:45;100846.88;;;12.84;47.54
33422;BME280;19763;55.798;37.782;2022-10-16T12:48:22;100850.25;;;12.92;47.52
33422;BME280;19763;55.798;37.782;2022-10-16T12:50:47;100851.94;;;12.96;47.75
33422;BME280;19763;55.798;37.782;2022-10-16T12:53:26;100849.47;;;12.85;48.00
33422;BME280;19763;55.798;37.782;2022-10-16T12:55:56;100858.38;;;12.64;46.89
33422;BME280;19763;55.798;37.782;2022-10-16T13:17:46;100846.34;;;12.54;48.45
33422;BME280;19763;55.798;37.782;2022-10-16T13:24:07;100846.47;;;12.43;48.08
33422;BME280;19763;55.798;37.782;2022-10-16T13:26:48;100853.44;;;12.38;48.27
33422;BME280;19763;55.798;37.782;2022-10-16T13:29:16;100851.69;;;12.43;48.81
33422;BME280;19763;55.798;37.782;2022-10-16T13:31:43;100846.53;;;12.40;49.25
33422;BME280;19763;55.798;37.782;2022-10-16T13:34:14;100843.88;;;12.43;48.37
33422;BME280;19763;55.798;37.782;2022-10-16T13:36:51;100845.59;;;12.42;49.36
33422;BME280;19763;55.798;37.782;2022-10-16T13:39:29;100841.41;;;12.31;48.34
33422;BME280;19763;55.798;37.782;2022-10-16T13:42:06;100831.91;;;12.26;49.66
33422;BME280;19763;55.798;37.782;2022-10-16T13:44:40;100852.72;;;12.23;49.46
33422;BME280;19763;55.798;37.782;2022-10-16T13:47:19;100825.91;;;12.23;49.39
33422;BME280;19763;55.798;37.782;2022-10-16T13:49:46;100835.38;;;12.27;49.86
33422;BME280;19763;55.798;37.782;2022-10-16T13:52:19;100853.56;;;12.29;48.65
33422;BME280;19763;55.798;37.782;2022-10-16T13:54:46;100850.03;;;12.31;49.47
33422;BME280;19763;55.798;37.782;2022-10-16T13:57:15;100835.50;;;12.13;49.85
33422;BME280;19763;55.798;37.782;2022-10-16T13:59:41;100846.66;;;12.24;49.98
33422;BME280;19763;55.798;37.782;2022-10-16T14:02:18;100843.19;;;12.22;49.29
33422;BME280;19763;55.798;37.782;2022-10-16T14:04:46;100838.97;;;12.14;49.67
33422;BME280;19763;55.798;37.782;2022-10-16T14:07:20;100830.34;;;12.07;49.99
33422;BME280;19763;55.798;37.782;2022-10-16T14:09:51;100840.75;;;12.07;50.41
33422;BME280;19763;55.798;37.782;2022-10-16T14:12:18;100844.25;;;12.00;50.14
33422;BME280;19763;55.798;37.782;2022-10-16T14:14:46;100822.72;;;11.85;49.90
33422;BME280;19763;55.798;37.782;2022-10-16T14:17:25;100840.88;;;11.95;50.28
33422;BME280;19763;55.798;37.782;2022-10-16T14:19:54;100839.13;;;11.95;51.32
33422;BME280;19763;55.798;37.782;2022-10-16T14:22:39;100845.19;;;11.89;50.84